createdAt,value
2017-12-14T00:02:18.600Z,98.10
2017-12-14T00:05:24.674Z,98.20
2017-12-14T00:08:29.633Z,98.20
2017-12-14T00:11:35.381Z,98.00
2017-12-14T00:14:41.621Z,98.20
2017-12-14T00:17:47.431Z,98.20
2017-12-14T00:20:52.825Z,98.10
2017-12-14T00:23:58.437Z,97.90
2017-12-14T00:27:03.512Z,98.00
2017-12-14T00:30:09.062Z,97.80
2017-12-14T00:33:14.326Z,97.70
2017-12-14T00:36:19.176Z,97.50
2017-12-14T00:39:24.987Z,97.10
2017-12-14T00:42:30.326Z,96.50
2017-12-14T00:45:36.031Z,95.00
2017-12-14T00:48:42.606Z,93.70
2017-12-14T00:51:48.423Z,93.70
2017-12-14T00:54:54.052Z,92.40
2017-12-14T00:57:59.878Z,92.40
2017-12-14T01:01:04.910Z,92.40
2017-12-14T01:04:12.398Z,93.10
2017-12-14T01:07:17.423Z,93.00
2017-12-14T01:10:22.845Z,93.20
2017-12-14T01:13:28.741Z,94.40
2017-12-14T01:16:33.774Z,94.30
2017-12-14T01:19:39.394Z,94.90
2017-12-14T01:22:45.162Z,95.60
2017-12-14T01:25:51.142Z,96.50
2017-12-14T01:28:56.357Z,96.30
2017-12-14T01:32:02.957Z,96.70
2017-12-14T01:35:08.106Z,96.70
2017-12-14T01:38:13.554Z,96.80
2017-12-14T01:41:20.083Z,96.50
2017-12-14T01:44:24.859Z,96.50
2017-12-14T01:47:29.709Z,96.20
2017-12-14T01:50:35.158Z,96.30
2017-12-14T01:53:40.375Z,96.20
2017-12-14T01:56:45.824Z,95.70
2017-12-14T01:59:50.681Z,95.80
2017-12-14T02:02:56.431Z,96.00
2017-12-14T02:06:02.875Z,96.20
2017-12-14T02:09:08.657Z,96.20
2017-12-14T02:12:15.402Z,96.40
2017-12-14T02:15:21.506Z,96.40
2017-12-14T02:18:27.077Z,96.50
2017-12-14T02:21:32.778Z,96.50
2017-12-14T02:24:38.390Z,96.20
2017-12-14T02:27:43.879Z,96.30
2017-12-14T02:30:49.011Z,96.00
2017-12-14T02:33:54.301Z,95.90
2017-12-14T02:36:59.778Z,96.00
2017-12-14T02:40:06.262Z,95.70
2017-12-14T02:43:11.204Z,95.70
2017-12-14T02:46:16.285Z,95.50
2017-12-14T02:49:22.811Z,95.00
2017-12-14T02:52:28.010Z,95.00
2017-12-14T02:55:33.058Z,94.80
2017-12-14T02:58:38.766Z,94.90
2017-12-14T03:01:43.814Z,94.90
2017-12-14T03:04:49.565Z,95.00
2017-12-14T03:07:54.487Z,95.10
2017-12-14T03:10:59.900Z,94.90
2017-12-14T03:14:05.087Z,95.10
2017-12-14T03:17:10.793Z,94.90
2017-12-14T03:20:16.067Z,95.00
2017-12-14T03:23:21.573Z,95.00
2017-12-14T03:26:26.551Z,94.70
2017-12-14T03:29:32.204Z,94.20
2017-12-14T03:32:38.095Z,94.40
2017-12-14T03:35:43.182Z,94.40
2017-12-14T03:38:48.414Z,95.00
2017-12-14T03:41:54.089Z,90.00
2017-12-14T03:44:59.833Z,90.00
2017-12-14T03:48:05.474Z,87.00
2017-12-14T03:51:10.888Z,87.10
2017-12-14T03:54:15.831Z,85.30
2017-12-14T03:57:21.686Z,85.80
2017-12-14T04:00:26.637Z,85.50
2017-12-14T04:03:32.626Z,80.90
2017-12-14T04:06:38.390Z,80.80
2017-12-14T04:09:44.061Z,82.00
2017-12-14T04:12:49.628Z,80.10
2017-12-14T04:15:55.026Z,82.70
2017-12-14T04:19:00.802Z,85.10
2017-12-14T04:22:05.748Z,85.20
2017-12-14T04:25:12.148Z,79.50
2017-12-14T04:28:17.096Z,79.40
2017-12-14T04:31:23.869Z,80.80
2017-12-14T04:34:30.305Z,80.80
2017-12-14T04:37:36.124Z,77.90
2017-12-14T04:40:41.498Z,80.30
2017-12-14T04:43:47.277Z,81.00
2017-12-14T04:46:52.885Z,84.40
2017-12-14T04:49:58.563Z,82.80
2017-12-14T04:53:04.082Z,79.90
2017-12-14T04:56:09.088Z,79.90
2017-12-14T04:59:14.040Z,78.70
2017-12-14T05:02:19.693Z,79.60
2017-12-14T05:05:25.342Z,78.70
2017-12-14T05:08:31.522Z,78.40
2017-12-14T05:11:36.745Z,79.00
2017-12-14T05:14:42.574Z,78.90
2017-12-14T05:17:48.184Z,78.30
2017-12-14T05:20:53.566Z,78.90
2017-12-14T05:23:59.747Z,77.60
2017-12-14T05:27:04.686Z,77.50
2017-12-14T05:30:09.822Z,77.80
2017-12-14T05:33:15.525Z,78.00
2017-12-14T05:36:21.082Z,77.90
2017-12-14T05:39:26.664Z,75.50
2017-12-14T05:42:32.370Z,76.70
2017-12-14T05:45:37.258Z,76.60
2017-12-14T05:48:42.925Z,75.70
2017-12-14T05:51:54.167Z,75.80
2017-12-14T05:54:59.306Z,75.00
2017-12-14T05:58:05.434Z,75.60
2017-12-14T06:01:10.426Z,75.40
2017-12-14T06:04:15.730Z,75.30
2017-12-14T06:07:21.518Z,75.40
2017-12-14T06:10:27.502Z,77.10
2017-12-14T06:13:33.137Z,77.10
2017-12-14T06:16:39.238Z,76.70
2017-12-14T06:19:45.042Z,76.60
2017-12-14T06:22:49.934Z,76.70
2017-12-14T06:25:55.030Z,76.80
2017-12-14T06:29:00.046Z,76.20
2017-12-14T06:32:05.627Z,77.00
2017-12-14T06:35:11.193Z,77.00
2017-12-14T06:38:16.638Z,76.00
2017-12-14T06:41:22.522Z,77.40
2017-12-14T06:44:27.998Z,77.10
2017-12-14T06:47:33.178Z,78.20
2017-12-14T06:50:38.014Z,77.60
2017-12-14T06:53:44.322Z,78.30
2017-12-14T06:56:50.016Z,78.20
2017-12-14T06:59:56.178Z,78.70
2017-12-14T07:03:01.153Z,78.60
2017-12-14T07:06:06.693Z,78.90
2017-12-14T07:09:12.633Z,78.20
2017-12-14T07:12:19.167Z,77.70
2017-12-14T07:15:25.638Z,78.10
2017-12-14T07:18:31.041Z,78.10
2017-12-14T07:21:36.334Z,77.40
2017-12-14T07:24:42.134Z,79.40
2017-12-14T07:27:46.946Z,79.40
2017-12-14T07:30:52.805Z,79.50
2017-12-14T07:33:58.442Z,79.20
2017-12-14T07:37:03.590Z,79.20
2017-12-14T07:40:09.181Z,79.20
2017-12-14T07:43:27.374Z,78.80
2017-12-14T07:46:44.351Z,78.70
2017-12-14T07:49:50.173Z,78.70
2017-12-14T07:52:55.566Z,79.90
2017-12-14T07:56:01.107Z,79.60
2017-12-14T07:59:07.562Z,78.10
2017-12-14T08:02:13.346Z,78.00
2017-12-14T08:05:18.244Z,79.00
2017-12-14T08:08:23.347Z,78.50
2017-12-14T08:11:28.622Z,79.10
2017-12-14T08:14:34.190Z,79.80
2017-12-14T08:17:39.224Z,80.30
2017-12-14T08:20:44.562Z,80.20
2017-12-14T08:23:50.470Z,79.30
2017-12-14T08:26:55.642Z,79.30
2017-12-14T08:30:01.526Z,80.00
2017-12-14T08:33:07.174Z,80.20
2017-12-14T08:36:12.805Z,79.50
2017-12-14T08:39:18.970Z,80.20
2017-12-14T08:42:25.093Z,80.40
2017-12-14T08:45:30.674Z,81.20
2017-12-14T08:48:36.429Z,81.20
2017-12-14T08:51:42.166Z,82.20
2017-12-14T08:54:47.483Z,82.20
2017-12-14T08:57:52.919Z,80.90
2017-12-14T09:00:58.667Z,81.20
2017-12-14T09:04:04.162Z,81.20
2017-12-14T09:07:09.357Z,80.90
2017-12-14T09:10:15.598Z,79.60
2017-12-14T09:13:21.718Z,79.60
2017-12-14T09:16:26.694Z,79.60
2017-12-14T09:19:32.000Z,79.90
2017-12-14T09:22:37.205Z,80.20
2017-12-14T09:25:42.258Z,80.10
2017-12-14T09:28:47.021Z,80.00
2017-12-14T09:31:52.038Z,79.40
2017-12-14T09:34:57.631Z,79.50
2017-12-14T09:38:02.522Z,79.50
2017-12-14T09:41:07.666Z,79.60
2017-12-14T09:44:13.583Z,77.90
2017-12-14T09:47:18.745Z,77.90
2017-12-14T09:50:24.611Z,78.30
2017-12-14T09:53:30.067Z,78.30
2017-12-14T09:56:35.694Z,78.10
2017-12-14T09:59:42.138Z,78.90
2017-12-14T10:02:46.902Z,78.90
2017-12-14T10:05:52.710Z,79.00
2017-12-14T10:08:58.354Z,77.70
2017-12-14T10:12:03.626Z,78.30
2017-12-14T10:15:08.911Z,78.30
2017-12-14T10:18:14.402Z,77.30
2017-12-14T10:21:20.015Z,77.90
2017-12-14T10:24:26.325Z,76.40
2017-12-14T10:27:32.510Z,77.60
2017-12-14T10:30:37.602Z,77.60
2017-12-14T10:33:43.467Z,76.20
2017-12-14T10:36:49.258Z,75.60
2017-12-14T10:39:55.014Z,75.60
2017-12-14T10:43:00.635Z,74.60
2017-12-14T10:46:05.706Z,75.60
2017-12-14T10:49:11.305Z,75.50
2017-12-14T10:52:16.946Z,76.10
2017-12-14T10:55:21.914Z,75.40
2017-12-14T10:58:27.173Z,74.10
2017-12-14T11:01:37.995Z,76.10
2017-12-14T11:04:43.554Z,75.90
2017-12-14T11:07:49.091Z,75.80
2017-12-14T11:10:55.076Z,75.80
2017-12-14T11:14:00.914Z,75.90
2017-12-14T11:17:06.750Z,76.40
2017-12-14T11:20:12.597Z,76.00
2017-12-14T11:23:18.318Z,76.00
2017-12-14T11:26:23.723Z,76.50
2017-12-14T11:29:29.787Z,75.60
2017-12-14T11:32:35.498Z,75.60
2017-12-14T11:35:40.630Z,76.10
2017-12-14T11:38:46.874Z,76.20
2017-12-14T11:41:52.694Z,75.20
2017-12-14T11:44:57.662Z,75.20
2017-12-14T11:48:03.688Z,74.90
2017-12-14T11:51:08.942Z,74.90
2017-12-14T11:54:13.758Z,75.30
2017-12-14T11:57:20.398Z,74.50
2017-12-14T12:00:25.764Z,74.30
2017-12-14T12:03:31.442Z,74.30
2017-12-14T12:06:36.530Z,74.50
2017-12-14T12:09:42.551Z,73.40
2017-12-14T12:12:47.410Z,73.40
2017-12-14T12:15:52.778Z,72.70
2017-12-14T12:18:58.278Z,71.90
2017-12-14T12:22:03.351Z,72.20
2017-12-14T12:25:09.605Z,71.80
2017-12-14T12:28:14.550Z,71.70
2017-12-14T12:31:20.690Z,72.30
2017-12-14T12:34:26.370Z,72.20
2017-12-14T12:37:31.861Z,72.40
2017-12-14T12:40:37.019Z,72.20
2017-12-14T12:43:42.302Z,73.10
2017-12-14T12:46:47.570Z,72.30
2017-12-14T12:49:52.913Z,72.90
2017-12-14T12:52:57.831Z,72.70
2017-12-14T12:56:03.273Z,72.20
2017-12-14T12:59:09.274Z,72.40
2017-12-14T13:02:14.232Z,72.40
2017-12-14T13:05:19.931Z,72.00
2017-12-14T13:08:25.510Z,71.40
2017-12-14T13:11:31.315Z,71.40
2017-12-14T13:14:36.952Z,72.20
2017-12-14T13:17:41.984Z,73.00
2017-12-14T13:20:47.516Z,72.80
2017-12-14T13:23:54.214Z,72.80
2017-12-14T13:26:59.934Z,72.70
2017-12-14T13:30:05.910Z,71.60
2017-12-14T13:33:11.535Z,71.40
2017-12-14T13:36:17.215Z,71.30
2017-12-14T13:39:22.970Z,71.80
2017-12-14T13:42:28.256Z,71.10
2017-12-14T13:45:33.707Z,70.70
2017-12-14T13:48:39.141Z,70.60
2017-12-14T13:51:44.378Z,70.20
2017-12-14T13:54:51.583Z,70.30
2017-12-14T13:57:56.453Z,70.20
2017-12-14T14:01:02.647Z,70.10
2017-12-14T14:04:08.067Z,70.10
2017-12-14T14:07:13.948Z,69.40
2017-12-14T14:10:19.130Z,69.30
2017-12-14T14:13:32.280Z,69.80
2017-12-14T14:16:37.198Z,70.00
2017-12-14T14:19:42.010Z,69.60
2017-12-14T14:22:47.664Z,69.90
2017-12-14T14:25:53.098Z,69.30
2017-12-14T14:28:58.458Z,69.80
2017-12-14T14:32:04.974Z,70.60
2017-12-14T14:35:10.274Z,70.50
2017-12-14T14:38:15.081Z,70.00
2017-12-14T14:41:20.021Z,70.30
2017-12-14T14:44:24.802Z,70.80
2017-12-14T14:47:30.858Z,72.90
2017-12-14T14:50:36.527Z,72.90
2017-12-14T14:53:41.442Z,73.30
2017-12-14T14:56:46.278Z,74.80
2017-12-14T14:59:52.752Z,76.10
2017-12-14T15:02:59.378Z,78.20
2017-12-14T15:06:04.610Z,78.80
2017-12-14T15:09:10.284Z,79.80
2017-12-14T15:12:15.514Z,80.00
2017-12-14T15:15:21.283Z,81.20
2017-12-14T15:18:26.203Z,81.20
2017-12-14T15:21:32.021Z,81.10
2017-12-14T15:24:37.422Z,80.90
2017-12-14T15:27:43.967Z,80.40
2017-12-14T15:30:49.983Z,80.30
2017-12-14T15:33:55.195Z,80.30
2017-12-14T15:37:01.659Z,79.70
2017-12-14T15:40:07.291Z,78.90
2017-12-14T15:43:13.059Z,78.80
2017-12-14T15:46:19.708Z,79.00
2017-12-14T15:49:24.241Z,78.90
2017-12-14T15:52:29.324Z,79.90
2017-12-14T15:55:34.138Z,82.00
2017-12-14T15:58:39.094Z,85.60
2017-12-14T16:01:44.249Z,88.60
2017-12-14T16:04:51.616Z,91.10
2017-12-14T16:07:56.906Z,91.10
2017-12-14T16:11:02.242Z,90.80
2017-12-14T16:14:07.054Z,91.10
2017-12-14T16:17:12.019Z,91.20
2017-12-14T16:20:17.294Z,91.40
2017-12-14T16:23:22.550Z,92.00
2017-12-14T16:26:28.033Z,92.50
2017-12-14T16:29:32.894Z,92.50
2017-12-14T16:32:38.893Z,92.60
2017-12-14T16:35:44.590Z,92.60
2017-12-14T16:38:50.203Z,92.70
2017-12-14T16:41:55.267Z,92.70
2017-12-14T16:45:00.071Z,93.00
2017-12-14T16:48:05.414Z,93.40
2017-12-14T16:51:17.202Z,93.60
2017-12-14T16:54:24.637Z,93.70
2017-12-14T16:57:30.421Z,93.60
2017-12-14T17:00:35.994Z,93.50
2017-12-14T17:03:42.447Z,93.70
2017-12-14T17:06:48.155Z,93.70
2017-12-14T17:09:53.903Z,93.90
2017-12-14T17:12:59.473Z,93.80
2017-12-14T17:16:04.198Z,93.80
2017-12-14T17:19:09.550Z,94.00
2017-12-14T17:22:15.746Z,94.10
2017-12-14T17:25:21.673Z,94.40
2017-12-14T17:28:27.503Z,94.40
2017-12-14T17:31:33.918Z,94.70
2017-12-14T17:34:38.970Z,94.60
2017-12-14T17:37:44.182Z,94.90
2017-12-14T17:40:49.213Z,94.90
2017-12-14T17:43:55.655Z,94.80
2017-12-14T17:47:01.319Z,95.00
2017-12-14T17:50:06.286Z,94.90
2017-12-14T17:53:11.995Z,95.10
2017-12-14T17:56:17.304Z,95.20
2017-12-14T17:59:23.050Z,95.30
2017-12-14T18:02:29.522Z,95.30
2017-12-14T18:05:34.742Z,95.10
2017-12-14T18:08:39.842Z,95.00
2017-12-14T18:11:45.282Z,95.20
2017-12-14T18:14:50.578Z,95.50
2017-12-14T18:17:56.926Z,95.30
2017-12-14T18:21:01.677Z,95.30
2017-12-14T18:24:07.935Z,95.50
2017-12-14T18:27:14.518Z,95.70
2017-12-14T18:30:19.990Z,95.70
2017-12-14T18:33:25.522Z,95.60
2017-12-14T18:36:30.690Z,95.70
2017-12-14T18:39:37.249Z,95.90
2017-12-14T18:42:43.018Z,95.90
2017-12-14T18:45:48.294Z,95.90
2017-12-14T18:48:53.062Z,96.00
2017-12-14T18:51:58.857Z,95.90
2017-12-14T18:55:04.316Z,95.90
2017-12-14T18:58:09.826Z,95.60
2017-12-14T19:01:15.118Z,95.80
2017-12-14T19:04:20.922Z,96.10
2017-12-14T19:07:26.261Z,96.10
2017-12-14T19:10:31.145Z,96.10
2017-12-14T19:13:36.282Z,96.10
2017-12-14T19:16:41.246Z,96.10
2017-12-14T19:19:46.654Z,96.00
2017-12-14T19:22:52.910Z,95.80
2017-12-14T19:25:58.010Z,95.70
2017-12-14T19:29:03.937Z,95.50
2017-12-14T19:32:09.453Z,95.70
2017-12-14T19:35:15.059Z,95.70
2017-12-14T19:38:20.894Z,95.80
2017-12-14T19:41:26.484Z,96.10
2017-12-14T19:44:31.706Z,96.10
2017-12-14T19:47:37.803Z,96.10
2017-12-14T19:50:43.373Z,96.10
2017-12-14T19:53:49.513Z,95.90
2017-12-14T19:56:55.234Z,95.90
2017-12-14T20:00:00.890Z,95.90
2017-12-14T20:03:06.306Z,95.80
2017-12-14T20:06:12.935Z,95.80
2017-12-14T20:09:18.026Z,95.80
2017-12-14T20:12:24.187Z,95.90
2017-12-14T20:15:30.674Z,95.90
2017-12-14T20:18:36.398Z,96.00
2017-12-14T20:21:44.602Z,95.90
2017-12-14T20:24:49.973Z,96.00
2017-12-14T20:27:55.694Z,96.00
2017-12-14T20:31:01.061Z,96.00
2017-12-14T20:34:07.307Z,95.90
2017-12-14T20:37:13.742Z,95.90
2017-12-14T20:40:20.053Z,95.60
2017-12-14T20:43:26.385Z,95.60
2017-12-14T20:46:31.918Z,95.60
2017-12-14T20:49:37.642Z,95.60
2017-12-14T20:52:42.586Z,95.60
2017-12-14T20:55:48.967Z,95.80
2017-12-14T20:58:54.370Z,95.80
2017-12-14T21:02:00.217Z,95.40
2017-12-14T21:05:05.986Z,95.40
2017-12-14T21:08:10.918Z,95.20
2017-12-14T21:11:16.058Z,95.20
2017-12-14T21:14:21.772Z,95.30
2017-12-14T21:17:26.966Z,95.30
2017-12-14T21:20:32.546Z,94.80
2017-12-14T21:23:37.862Z,94.50
2017-12-14T21:26:42.701Z,94.50
2017-12-14T21:29:47.694Z,94.60
2017-12-14T21:32:53.582Z,94.60
2017-12-14T21:35:59.994Z,94.90
2017-12-14T21:39:05.881Z,94.90
2017-12-14T21:42:11.554Z,94.90
2017-12-14T21:45:17.643Z,95.00
2017-12-14T21:48:23.139Z,95.00
2017-12-14T21:51:29.197Z,94.80
2017-12-14T21:54:35.102Z,94.60
2017-12-14T21:57:40.302Z,94.60
2017-12-14T22:00:46.373Z,94.30
2017-12-14T22:03:52.197Z,94.40
2017-12-14T22:06:57.950Z,94.40
2017-12-14T22:10:03.918Z,94.90
2017-12-14T22:13:09.414Z,94.90
2017-12-14T22:16:14.270Z,95.20
2017-12-14T22:19:19.976Z,95.30
2017-12-14T22:22:25.351Z,95.20
2017-12-14T22:25:30.633Z,95.00
2017-12-14T22:28:36.180Z,94.90
2017-12-14T22:31:41.577Z,95.00
2017-12-14T22:34:47.191Z,94.80
2017-12-14T22:37:52.978Z,95.00
2017-12-14T22:40:58.057Z,94.90
2017-12-14T22:44:03.982Z,94.70
2017-12-14T22:47:08.998Z,94.70
2017-12-14T22:50:14.706Z,94.40
2017-12-14T22:53:20.229Z,94.40
2017-12-14T22:56:25.074Z,94.50
2017-12-14T22:59:30.134Z,94.40
2017-12-14T23:02:35.342Z,94.20
2017-12-14T23:05:41.126Z,94.20
2017-12-14T23:08:46.859Z,94.20
2017-12-14T23:11:52.672Z,93.90
2017-12-14T23:14:58.617Z,93.80
2017-12-14T23:18:04.493Z,93.70
2017-12-14T23:21:10.641Z,93.60
2017-12-14T23:24:15.725Z,93.60
2017-12-14T23:27:21.437Z,93.80
2017-12-14T23:30:26.750Z,94.10
2017-12-14T23:33:32.309Z,94.20
2017-12-14T23:36:37.546Z,94.10
2017-12-14T23:39:43.862Z,94.40
2017-12-14T23:42:49.602Z,94.60
2017-12-14T23:45:54.821Z,94.50
2017-12-14T23:49:00.594Z,95.00
2017-12-14T23:52:06.094Z,95.00
2017-12-14T23:55:10.847Z,94.90
2017-12-14T23:58:16.378Z,94.80
